createdAt,value
2023-02-25T00:00:29.184Z,2.08
2023-02-25T00:01:00.234Z,2.08
2023-02-25T00:01:32.110Z,2.08
2023-02-25T00:02:04.672Z,2.08
2023-02-25T00:02:36.179Z,2.20
2023-02-25T00:03:08.176Z,2.20
2023-02-25T00:03:35.333Z,2.20
2023-02-25T00:03:56.094Z,2.20
2023-02-25T00:04:28.596Z,2.20
2023-02-25T00:05:00.135Z,2.20
2023-02-25T00:05:33.085Z,2.08
2023-02-25T00:06:04.109Z,2.08
2023-02-25T00:06:36.157Z,2.08
2023-02-25T00:07:08.070Z,2.08
2023-02-25T00:07:35.257Z,2.08
2023-02-25T00:07:56.151Z,2.08
2023-02-25T00:08:28.657Z,2.08
2023-02-25T00:09:00.152Z,2.08
2023-02-25T00:09:32.120Z,2.08
2023-02-25T00:10:04.453Z,2.08
2023-02-25T00:10:36.188Z,2.08
2023-02-25T00:11:08.101Z,2.20
2023-02-25T00:11:35.278Z,2.20
2023-02-25T00:11:57.081Z,2.20
2023-02-25T00:12:28.638Z,2.20
2023-02-25T00:13:15.897Z,2.20
2023-02-25T00:13:32.092Z,2.20
2023-02-25T00:14:04.106Z,2.20
2023-02-25T00:14:36.151Z,2.20
2023-02-25T00:15:09.632Z,2.20
2023-02-25T00:15:35.807Z,2.20
2023-02-25T00:15:56.435Z,2.20
2023-02-25T00:16:28.675Z,2.20
2023-02-25T00:17:00.242Z,2.08
2023-02-25T00:17:32.119Z,2.08
2023-02-25T00:18:04.115Z,2.08
2023-02-25T00:18:36.177Z,2.08
2023-02-25T00:19:08.122Z,2.08
2023-02-25T00:19:35.287Z,2.08
2023-02-25T00:19:56.118Z,2.08
2023-02-25T00:20:28.845Z,2.08
2023-02-25T00:21:00.149Z,1.92
2023-02-25T00:21:33.686Z,1.92
2023-02-25T00:22:04.122Z,1.92
2023-02-25T00:22:36.104Z,1.92
2023-02-25T00:23:08.151Z,2.08
2023-02-25T00:23:35.258Z,2.08
2023-02-25T00:24:00.015Z,2.20
2023-02-25T00:24:28.570Z,2.20
2023-02-25T00:25:00.183Z,2.20
2023-02-25T00:25:32.442Z,2.20
2023-02-25T00:26:04.156Z,2.20
2023-02-25T00:26:36.136Z,2.20
2023-02-25T00:27:08.155Z,2.20
2023-02-25T00:27:35.666Z,2.20
2023-02-25T00:27:56.836Z,2.20
2023-02-25T00:28:28.627Z,2.20
2023-02-25T00:29:00.143Z,2.20
2023-02-25T00:29:32.081Z,2.20
2023-02-25T00:30:04.849Z,2.20
2023-02-25T00:30:36.250Z,2.20
2023-02-25T00:31:08.917Z,2.20
2023-02-25T00:31:35.430Z,2.08
2023-02-25T00:31:56.332Z,2.08
2023-02-25T00:32:28.821Z,2.08
2023-02-25T00:33:00.189Z,2.08
2023-02-25T00:33:32.175Z,2.08
2023-02-25T00:34:04.167Z,2.08
2023-02-25T00:34:36.143Z,2.08
2023-02-25T00:35:08.388Z,2.08
2023-02-25T00:35:35.292Z,2.08
2023-02-25T00:35:56.392Z,1.92
2023-02-25T00:36:28.759Z,1.92
2023-02-25T00:37:00.157Z,1.92
2023-02-25T00:37:32.895Z,1.92
2023-02-25T00:38:15.426Z,1.92
2023-02-25T00:38:36.534Z,1.92
2023-02-25T00:39:08.105Z,1.92
2023-02-25T00:39:35.337Z,1.92
2023-02-25T00:39:56.121Z,1.92
2023-02-25T00:40:28.969Z,1.92
2023-02-25T00:41:00.166Z,1.92
2023-02-25T00:41:32.114Z,1.92
2023-02-25T00:42:04.134Z,1.92
2023-02-25T00:42:36.174Z,1.92
2023-02-25T00:43:08.178Z,1.92
2023-02-25T00:43:35.277Z,1.92
2023-02-25T00:43:56.943Z,1.92
2023-02-25T00:44:28.636Z,1.77
2023-02-25T00:45:00.203Z,1.77
2023-02-25T00:45:32.610Z,1.92
2023-02-25T00:46:04.372Z,1.92
2023-02-25T00:46:36.290Z,1.92
2023-02-25T00:47:08.888Z,1.92
2023-02-25T00:47:35.352Z,1.92
2023-02-25T00:47:56.110Z,1.92
2023-02-25T00:48:28.673Z,1.92
2023-02-25T00:49:00.485Z,1.92
2023-02-25T00:49:32.813Z,1.92
2023-02-25T00:50:04.408Z,1.77
2023-02-25T00:50:36.571Z,1.77
2023-02-25T00:51:08.115Z,1.92
2023-02-25T00:51:35.577Z,1.92
2023-02-25T00:51:57.569Z,1.77
2023-02-25T00:52:28.578Z,1.92
2023-02-25T00:53:00.153Z,1.77
2023-02-25T00:53:32.891Z,1.77
2023-02-25T00:54:04.071Z,1.92
2023-02-25T00:54:36.105Z,1.92
2023-02-25T00:55:08.437Z,1.92
2023-02-25T00:55:35.264Z,1.92
2023-02-25T00:55:56.424Z,1.92
2023-02-25T00:56:28.668Z,1.92
2023-02-25T00:57:00.168Z,1.77
2023-02-25T00:57:32.122Z,1.77
2023-02-25T00:58:04.141Z,1.66
2023-02-25T00:58:36.117Z,1.66
2023-02-25T00:59:08.107Z,1.66
2023-02-25T00:59:35.298Z,1.66
2023-02-25T00:59:56.849Z,1.66
2023-02-25T01:00:29.321Z,1.66
2023-02-25T01:01:00.179Z,1.66
2023-02-25T01:01:32.178Z,1.66
2023-02-25T01:02:04.185Z,1.66
2023-02-25T01:02:36.120Z,1.66
2023-02-25T01:03:09.779Z,1.66
2023-02-25T01:03:35.331Z,1.66
2023-02-25T01:03:56.188Z,1.66
2023-02-25T01:04:28.646Z,1.66
2023-02-25T01:05:00.206Z,1.66
2023-02-25T01:05:32.454Z,1.66
2023-02-25T01:06:04.226Z,1.66
2023-02-25T01:06:36.193Z,1.66
2023-02-25T01:07:08.121Z,1.66
2023-02-25T01:07:35.271Z,1.66
2023-02-25T01:07:56.130Z,1.66
2023-02-25T01:08:28.611Z,1.61
2023-02-25T01:09:00.155Z,1.61
2023-02-25T01:09:32.903Z,1.66
2023-02-25T01:10:04.409Z,1.66
2023-02-25T01:10:36.144Z,1.66
2023-02-25T01:11:08.149Z,1.66
2023-02-25T01:11:35.465Z,1.61
2023-02-25T01:11:56.160Z,1.61
2023-02-25T01:12:28.641Z,1.61
2023-02-25T01:13:00.152Z,1.77
2023-02-25T01:13:32.141Z,1.77
2023-02-25T01:14:04.179Z,1.77
2023-02-25T01:14:36.159Z,1.77
2023-02-25T01:15:08.654Z,1.77
2023-02-25T01:15:35.440Z,1.77
2023-02-25T01:15:57.439Z,1.77
2023-02-25T01:16:28.776Z,1.77
2023-02-25T01:17:00.149Z,1.77
2023-02-25T01:17:32.091Z,1.77
2023-02-25T01:18:04.171Z,1.77
2023-02-25T01:18:36.126Z,1.93
2023-02-25T01:19:08.946Z,1.93
2023-02-25T01:19:35.263Z,1.93
2023-02-25T01:19:56.206Z,1.98
2023-02-25T01:20:29.170Z,1.77
2023-02-25T01:21:00.190Z,1.77
2023-02-25T01:21:32.158Z,1.77
2023-02-25T01:22:04.153Z,1.77
2023-02-25T01:22:36.163Z,1.77
2023-02-25T01:23:08.128Z,1.77
2023-02-25T01:23:35.278Z,1.77
2023-02-25T01:23:56.127Z,1.77
2023-02-25T01:24:28.647Z,1.77
2023-02-25T01:25:00.192Z,1.77
2023-02-25T01:25:33.277Z,1.77
2023-02-25T01:26:04.177Z,1.77
2023-02-25T01:26:36.145Z,1.66
2023-02-25T01:27:08.122Z,1.66
2023-02-25T01:27:35.287Z,1.66
2023-02-25T01:27:56.194Z,1.66
2023-02-25T01:28:28.630Z,1.66
2023-02-25T01:29:00.244Z,1.66
2023-02-25T01:29:32.154Z,1.66
2023-02-25T01:30:04.766Z,1.66
2023-02-25T01:30:36.593Z,1.66
2023-02-25T01:31:08.281Z,1.66
2023-02-25T01:31:35.354Z,1.82
2023-02-25T01:31:57.160Z,1.82
2023-02-25T01:32:28.710Z,1.82
2023-02-25T01:33:00.312Z,1.66
2023-02-25T01:33:32.293Z,1.66
2023-02-25T01:34:04.235Z,1.66
2023-02-25T01:34:36.095Z,1.66
2023-02-25T01:35:09.222Z,1.66
2023-02-25T01:35:35.284Z,1.66
2023-02-25T01:35:56.442Z,1.66
2023-02-25T01:36:28.645Z,1.55
2023-02-25T01:37:00.166Z,1.71
2023-02-25T01:37:32.129Z,1.71
2023-02-25T01:38:04.217Z,1.71
2023-02-25T01:38:36.124Z,1.82
2023-02-25T01:39:09.887Z,1.66
2023-02-25T01:39:35.631Z,1.66
2023-02-25T01:39:56.139Z,1.82
2023-02-25T01:40:29.226Z,1.82
2023-02-25T01:41:02.336Z,1.82
2023-02-25T01:41:33.110Z,1.82
2023-02-25T01:42:04.233Z,1.93
2023-02-25T01:42:36.376Z,1.93
2023-02-25T01:43:09.168Z,1.93
2023-02-25T01:43:35.307Z,1.93
2023-02-25T01:43:57.177Z,1.93
2023-02-25T01:44:28.911Z,1.82
2023-02-25T01:45:01.012Z,1.82
2023-02-25T01:45:32.340Z,1.82
2023-02-25T01:46:04.762Z,1.82
2023-02-25T01:46:36.341Z,1.82
2023-02-25T01:47:08.278Z,1.82
2023-02-25T01:47:35.744Z,1.82
2023-02-25T01:47:57.119Z,1.82
2023-02-25T01:48:28.846Z,1.82
2023-02-25T01:49:00.247Z,1.82
2023-02-25T01:49:32.144Z,1.82
2023-02-25T01:50:04.604Z,1.82
2023-02-25T01:50:36.944Z,1.82
2023-02-25T01:51:09.129Z,1.82
2023-02-25T01:51:35.549Z,1.82
2023-02-25T01:51:56.146Z,1.82
2023-02-25T01:52:28.694Z,1.82
2023-02-25T01:53:00.236Z,1.82
2023-02-25T01:53:32.176Z,1.82
2023-02-25T01:54:04.174Z,1.82
2023-02-25T01:54:36.181Z,1.82
2023-02-25T01:55:08.458Z,1.82
2023-02-25T01:55:35.445Z,1.82
2023-02-25T01:55:56.384Z,1.82
2023-02-25T01:56:28.674Z,1.82
2023-02-25T01:57:00.245Z,1.82
2023-02-25T01:57:32.945Z,1.82
2023-02-25T01:58:04.207Z,1.82
2023-02-25T01:58:36.159Z,1.82
2023-02-25T01:59:08.141Z,1.82
2023-02-25T01:59:35.321Z,1.82
2023-02-25T01:59:56.193Z,1.82
2023-02-25T02:00:29.399Z,1.82
2023-02-25T02:01:00.384Z,1.82
2023-02-25T02:01:32.257Z,1.82
2023-02-25T02:02:04.302Z,1.82
2023-02-25T02:02:36.335Z,1.82
2023-02-25T02:03:08.221Z,1.66
2023-02-25T02:03:35.317Z,1.66
2023-02-25T02:03:56.927Z,1.66
2023-02-25T02:04:28.737Z,1.66
2023-02-25T02:05:00.674Z,1.39
2023-02-25T02:05:32.180Z,1.39
2023-02-25T02:06:04.249Z,1.39
2023-02-25T02:06:36.203Z,1.50
2023-02-25T02:07:09.159Z,1.50
2023-02-25T02:07:35.321Z,1.50
2023-02-25T02:07:56.198Z,1.50
2023-02-25T02:08:28.751Z,1.50
2023-02-25T02:09:00.250Z,1.50
2023-02-25T02:09:32.292Z,1.50
2023-02-25T02:10:04.489Z,1.34
2023-02-25T02:10:36.201Z,1.34
2023-02-25T02:11:08.157Z,1.34
2023-02-25T02:11:35.482Z,1.34
2023-02-25T02:11:56.195Z,1.50
2023-02-25T02:12:28.749Z,1.61
2023-02-25T02:13:00.255Z,1.45
2023-02-25T02:13:33.136Z,1.45
2023-02-25T02:14:04.248Z,1.45
2023-02-25T02:14:36.162Z,1.45
2023-02-25T02:15:08.668Z,1.45
2023-02-25T02:15:35.356Z,1.45
2023-02-25T02:15:56.549Z,1.34
2023-02-25T02:16:28.711Z,1.34
2023-02-25T02:17:00.254Z,1.45
2023-02-25T02:17:32.169Z,1.45
2023-02-25T02:18:04.251Z,1.45
2023-02-25T02:18:36.213Z,1.61
2023-02-25T02:19:08.143Z,1.45
2023-02-25T02:19:35.396Z,1.61
2023-02-25T02:19:57.112Z,1.45
2023-02-25T02:20:29.036Z,1.61
2023-02-25T02:21:00.255Z,1.61
2023-02-25T02:21:32.150Z,1.45
2023-02-25T02:22:04.189Z,1.34
2023-02-25T02:22:36.469Z,1.50
2023-02-25T02:23:08.854Z,1.50
2023-02-25T02:23:35.304Z,1.50
2023-02-25T02:23:56.154Z,1.50
2023-02-25T02:24:28.785Z,1.50
2023-02-25T02:25:00.608Z,1.61
2023-02-25T02:25:32.163Z,1.61
2023-02-25T02:26:04.187Z,1.61
2023-02-25T02:26:36.206Z,1.61
2023-02-25T02:27:08.158Z,1.61
2023-02-25T02:27:35.332Z,1.61
2023-02-25T02:27:56.167Z,1.61
2023-02-25T02:28:28.703Z,1.61
2023-02-25T02:29:00.256Z,1.61
2023-02-25T02:29:40.386Z,1.61
2023-02-25T02:30:04.798Z,1.61
2023-02-25T02:30:36.566Z,1.61
2023-02-25T02:31:08.282Z,1.61
2023-02-25T02:31:35.643Z,1.61
2023-02-25T02:31:56.242Z,1.61
2023-02-25T02:32:28.856Z,1.61
2023-02-25T02:33:00.535Z,1.61
2023-02-25T02:33:32.453Z,1.61
2023-02-25T02:34:04.206Z,1.77
2023-02-25T02:34:36.140Z,1.77
2023-02-25T02:35:08.427Z,1.82
2023-02-25T02:35:35.301Z,1.82
2023-02-25T02:35:57.246Z,1.82
2023-02-25T02:36:28.628Z,1.82
2023-02-25T02:37:00.174Z,1.82
2023-02-25T02:37:32.137Z,1.82
2023-02-25T02:38:04.131Z,1.82
2023-02-25T02:38:36.109Z,1.82
2023-02-25T02:39:08.918Z,1.82
2023-02-25T02:39:35.298Z,1.82
2023-02-25T02:39:56.163Z,1.82
2023-02-25T02:40:29.516Z,1.82
2023-02-25T02:41:00.148Z,1.98
2023-02-25T02:41:32.147Z,1.82
2023-02-25T02:42:04.117Z,1.98
2023-02-25T02:42:36.167Z,1.98
2023-02-25T02:43:08.125Z,1.98
2023-02-25T02:43:35.278Z,1.98
2023-02-25T02:43:56.101Z,1.98
2023-02-25T02:44:28.288Z,1.98
2023-02-25T02:45:00.234Z,1.98
2023-02-25T02:45:33.527Z,1.98
2023-02-25T02:46:04.395Z,1.98
2023-02-25T02:46:36.323Z,1.98
2023-02-25T02:47:08.137Z,1.98
2023-02-25T02:47:35.227Z,1.98
2023-02-25T02:47:56.187Z,1.98
2023-02-25T02:48:28.638Z,1.98
2023-02-25T02:49:00.251Z,1.98
2023-02-25T02:49:32.129Z,1.98
2023-02-25T02:50:04.406Z,1.98
2023-02-25T02:50:36.184Z,1.98
2023-02-25T02:51:08.131Z,2.13
2023-02-25T02:51:35.297Z,1.98
2023-02-25T02:51:57.101Z,1.98
2023-02-25T02:52:28.169Z,1.98
2023-02-25T02:53:00.193Z,1.98
2023-02-25T02:53:32.140Z,1.93
2023-02-25T02:54:04.152Z,1.93
2023-02-25T02:54:36.148Z,1.93
2023-02-25T02:55:08.464Z,1.93
2023-02-25T02:55:35.253Z,1.93
2023-02-25T02:55:56.409Z,1.93
2023-02-25T02:56:28.174Z,1.93
2023-02-25T02:57:00.229Z,1.93
2023-02-25T02:57:32.813Z,1.93
2023-02-25T02:58:04.217Z,1.93
2023-02-25T02:58:36.141Z,1.93
2023-02-25T02:59:08.216Z,1.93
2023-02-25T02:59:35.310Z,1.93
2023-02-25T02:59:56.111Z,1.93
2023-02-25T03:00:29.044Z,1.93
2023-02-25T03:01:00.349Z,1.93
2023-02-25T03:01:32.243Z,1.93
2023-02-25T03:02:04.224Z,1.93
2023-02-25T03:02:36.116Z,1.93
2023-02-25T03:03:08.189Z,1.93
2023-02-25T03:03:35.353Z,1.93
2023-02-25T03:03:56.925Z,1.93
2023-02-25T03:04:28.157Z,1.82
2023-02-25T03:05:00.609Z,1.82
2023-02-25T03:05:32.155Z,1.93
2023-02-25T03:06:04.184Z,1.82
2023-02-25T03:06:36.095Z,1.82
2023-02-25T03:07:08.827Z,1.82
2023-02-25T03:07:35.260Z,1.82
2023-02-25T03:07:56.096Z,1.82
2023-02-25T03:08:28.168Z,1.82
2023-02-25T03:09:00.199Z,1.82
2023-02-25T03:09:32.111Z,1.82
2023-02-25T03:10:04.517Z,1.82
2023-02-25T03:10:36.109Z,1.82
2023-02-25T03:11:08.221Z,1.82
2023-02-25T03:11:35.272Z,1.71
2023-02-25T03:11:56.146Z,1.71
2023-02-25T03:12:28.168Z,1.71
2023-02-25T03:13:00.184Z,1.71
2023-02-25T03:13:32.950Z,1.71
2023-02-25T03:14:04.171Z,1.82
2023-02-25T03:14:36.530Z,1.82
2023-02-25T03:15:08.662Z,1.82
2023-02-25T03:15:35.243Z,1.71
2023-02-25T03:15:56.369Z,1.71
2023-02-25T03:16:28.236Z,1.71
2023-02-25T03:17:00.290Z,1.71
2023-02-25T03:17:32.119Z,1.71
2023-02-25T03:18:04.114Z,1.71
2023-02-25T03:18:38.172Z,1.71
2023-02-25T03:19:08.204Z,1.71
2023-02-25T03:19:35.230Z,1.71
2023-02-25T03:19:56.992Z,1.71
2023-02-25T03:20:28.847Z,1.71
2023-02-25T03:21:00.218Z,1.71
2023-02-25T03:21:32.127Z,1.71
2023-02-25T03:22:04.136Z,1.71
2023-02-25T03:22:36.139Z,1.71
2023-02-25T03:23:08.957Z,1.71
2023-02-25T03:23:35.541Z,1.71
2023-02-25T03:23:56.124Z,1.71
2023-02-25T03:24:28.142Z,1.71
2023-02-25T03:25:00.978Z,1.71
2023-02-25T03:25:32.102Z,1.59
2023-02-25T03:26:04.160Z,1.59
2023-02-25T03:26:36.154Z,1.71
2023-02-25T03:27:08.207Z,1.71
2023-02-25T03:27:35.254Z,1.71
2023-02-25T03:27:56.148Z,1.71
2023-02-25T03:28:28.174Z,1.71
2023-02-25T03:29:00.236Z,1.71
2023-02-25T03:29:32.832Z,1.71
2023-02-25T03:30:04.863Z,1.71
2023-02-25T03:30:36.212Z,1.71
2023-02-25T03:31:08.336Z,1.71
2023-02-25T03:31:35.372Z,1.71
2023-02-25T03:31:56.374Z,1.71
2023-02-25T03:32:28.274Z,1.71
2023-02-25T03:33:00.225Z,1.71
2023-02-25T03:33:32.096Z,1.71
2023-02-25T03:34:04.162Z,1.59
2023-02-25T03:34:36.143Z,1.59
2023-02-25T03:35:08.530Z,1.59
2023-02-25T03:35:35.281Z,1.59
2023-02-25T03:35:57.334Z,1.59
2023-02-25T03:36:28.198Z,1.59
2023-02-25T03:37:00.235Z,1.59
2023-02-25T03:37:32.154Z,1.59
2023-02-25T03:38:04.156Z,1.59
2023-02-25T03:38:36.127Z,1.59
2023-02-25T03:39:08.851Z,1.59
2023-02-25T03:39:35.441Z,1.59
2023-02-25T03:39:56.116Z,1.59
2023-02-25T03:40:28.983Z,1.59
2023-02-25T03:41:16.176Z,1.59
2023-02-25T03:41:37.873Z,1.59
2023-02-25T03:42:04.126Z,1.59
2023-02-25T03:42:36.147Z,1.59
2023-02-25T03:43:08.505Z,1.59
2023-02-25T03:43:35.230Z,1.59
2023-02-25T03:43:56.167Z,1.59
2023-02-25T03:44:28.279Z,1.59
2023-02-25T03:45:01.003Z,1.59
2023-02-25T03:45:32.953Z,1.59
2023-02-25T03:46:04.393Z,1.59
2023-02-25T03:46:36.177Z,1.59
2023-02-25T03:47:08.186Z,1.59
2023-02-25T03:47:35.308Z,1.59
2023-02-25T03:47:56.132Z,1.59
2023-02-25T03:48:28.170Z,1.59
2023-02-25T03:49:00.199Z,1.59
2023-02-25T03:49:32.172Z,1.59
2023-02-25T03:50:04.498Z,1.59
2023-02-25T03:50:36.148Z,1.59
2023-02-25T03:51:08.213Z,1.59
2023-02-25T03:51:35.254Z,1.59
2023-02-25T03:51:56.862Z,1.59
2023-02-25T03:52:28.264Z,1.59
2023-02-25T03:53:00.219Z,1.59
2023-02-25T03:53:34.883Z,1.59
2023-02-25T03:54:04.182Z,1.59
2023-02-25T03:54:36.199Z,1.59
2023-02-25T03:55:08.531Z,1.71
2023-02-25T03:55:35.653Z,1.71
2023-02-25T03:55:56.391Z,1.71
2023-02-25T03:56:28.179Z,1.71
2023-02-25T03:57:16.199Z,1.71
2023-02-25T03:57:37.851Z,1.71
2023-02-25T03:58:04.197Z,1.59
2023-02-25T03:58:36.120Z,1.71
2023-02-25T03:59:08.175Z,1.59
2023-02-25T03:59:35.287Z,1.43
2023-02-25T03:59:56.128Z,1.43
2023-02-25T04:00:29.151Z,1.59
2023-02-25T04:01:00.257Z,1.59
2023-02-25T04:01:32.294Z,1.59
2023-02-25T04:02:04.193Z,1.59
2023-02-25T04:02:36.231Z,1.71
2023-02-25T04:03:08.195Z,1.71
2023-02-25T04:03:35.242Z,1.71
2023-02-25T04:03:58.382Z,1.71
2023-02-25T04:04:28.219Z,1.43
2023-02-25T04:05:00.620Z,1.43
2023-02-25T04:05:32.147Z,1.43
2023-02-25T04:06:04.169Z,1.43
2023-02-25T04:06:36.439Z,1.43
2023-02-25T04:07:08.939Z,1.43
2023-02-25T04:07:35.247Z,1.43
2023-02-25T04:07:56.205Z,1.43
2023-02-25T04:08:28.227Z,1.59
2023-02-25T04:09:00.254Z,1.59
2023-02-25T04:09:32.140Z,1.59
2023-02-25T04:10:04.509Z,1.59
2023-02-25T04:10:36.925Z,1.43
2023-02-25T04:11:09.046Z,1.43
2023-02-25T04:11:35.243Z,1.43
2023-02-25T04:11:56.133Z,1.43
2023-02-25T04:12:28.215Z,1.43
2023-02-25T04:13:00.370Z,1.59
2023-02-25T04:13:32.123Z,1.59
2023-02-25T04:14:04.187Z,1.43
2023-02-25T04:14:36.117Z,1.43
2023-02-25T04:15:08.756Z,1.43
2023-02-25T04:15:35.415Z,1.43
2023-02-25T04:15:56.533Z,1.43
2023-02-25T04:16:28.232Z,1.43
2023-02-25T04:17:01.201Z,1.43
2023-02-25T04:17:32.159Z,1.43
2023-02-25T04:18:04.274Z,1.43
2023-02-25T04:18:36.134Z,1.43
2023-02-25T04:19:08.208Z,1.43
2023-02-25T04:19:35.263Z,1.43
2023-02-25T04:19:56.158Z,1.43
2023-02-25T04:20:28.940Z,1.43
2023-02-25T04:21:00.262Z,1.43
2023-02-25T04:21:32.132Z,1.43
2023-02-25T04:22:04.134Z,1.43
2023-02-25T04:22:36.114Z,1.43
2023-02-25T04:23:08.159Z,1.43
2023-02-25T04:23:35.263Z,1.43
2023-02-25T04:23:56.170Z,1.43
2023-02-25T04:24:28.211Z,1.43
2023-02-25T04:25:00.600Z,1.43
2023-02-25T04:25:32.141Z,1.43
2023-02-25T04:26:04.185Z,1.43
2023-02-25T04:26:36.963Z,1.43
2023-02-25T04:27:08.198Z,1.55
2023-02-25T04:27:35.286Z,1.55
2023-02-25T04:27:56.139Z,1.43
2023-02-25T04:28:28.300Z,1.43
2023-02-25T04:29:00.223Z,1.43
2023-02-25T04:29:32.141Z,1.43
2023-02-25T04:30:04.775Z,1.43
2023-02-25T04:30:36.185Z,1.43
2023-02-25T04:31:08.322Z,1.43
2023-02-25T04:31:35.401Z,1.43
2023-02-25T04:31:56.431Z,1.43
2023-02-25T04:32:28.467Z,1.43
2023-02-25T04:33:02.418Z,1.43
2023-02-25T04:33:32.334Z,1.43
2023-02-25T04:34:04.186Z,1.43
2023-02-25T04:34:36.151Z,1.43
2023-02-25T04:35:08.486Z,1.43
2023-02-25T04:35:35.296Z,1.43
2023-02-25T04:35:56.374Z,1.43
2023-02-25T04:36:28.175Z,1.43
2023-02-25T04:37:16.204Z,1.43
2023-02-25T04:37:38.213Z,1.43
2023-02-25T04:38:04.177Z,1.43
2023-02-25T04:38:36.151Z,1.43
2023-02-25T04:39:08.194Z,1.43
2023-02-25T04:39:35.275Z,1.43
2023-02-25T04:39:56.185Z,1.43
2023-02-25T04:40:28.958Z,1.43
2023-02-25T04:41:00.381Z,1.43
2023-02-25T04:41:32.278Z,1.43
2023-02-25T04:42:04.295Z,1.43
2023-02-25T04:42:39.933Z,1.27
2023-02-25T04:43:08.233Z,1.27
2023-02-25T04:43:35.668Z,1.27
2023-02-25T04:43:56.168Z,1.27
2023-02-25T04:44:28.173Z,1.27
2023-02-25T04:45:16.654Z,1.27
2023-02-25T04:45:37.812Z,1.27
2023-02-25T04:46:04.441Z,1.27
2023-02-25T04:46:36.156Z,1.27
2023-02-25T04:47:08.328Z,1.27
2023-02-25T04:47:35.672Z,1.27
2023-02-25T04:47:56.461Z,1.27
2023-02-25T04:48:28.215Z,1.27
2023-02-25T04:49:17.881Z,1.27
2023-02-25T04:49:37.809Z,1.27
2023-02-25T04:50:04.508Z,1.27
2023-02-25T04:50:36.217Z,1.27
2023-02-25T04:51:08.372Z,1.27
2023-02-25T04:51:35.275Z,1.27
2023-02-25T04:51:56.315Z,1.27
2023-02-25T04:52:29.642Z,1.27
2023-02-25T04:53:16.194Z,1.27
2023-02-25T04:53:37.822Z,1.43
2023-02-25T04:54:04.155Z,1.27
2023-02-25T04:54:36.147Z,1.27
2023-02-25T04:55:08.506Z,1.27
2023-02-25T04:55:36.125Z,1.27
2023-02-25T04:55:56.398Z,1.27
2023-02-25T04:56:28.245Z,1.27
2023-02-25T04:57:00.262Z,1.27
2023-02-25T04:57:32.138Z,1.27
2023-02-25T04:58:04.220Z,1.27
2023-02-25T04:58:36.890Z,1.27
2023-02-25T04:59:08.249Z,1.27
2023-02-25T04:59:35.255Z,1.27
2023-02-25T04:59:56.171Z,1.27
2023-02-25T05:00:29.287Z,1.27
2023-02-25T05:01:16.352Z,1.27
2023-02-25T05:01:37.888Z,1.27
2023-02-25T05:02:05.475Z,1.27
2023-02-25T05:02:35.655Z,1.27
2023-02-25T05:03:07.616Z,1.43
2023-02-25T05:03:35.112Z,1.43
2023-02-25T05:03:55.628Z,1.43
2023-02-25T05:04:27.748Z,1.43
2023-02-25T05:04:59.765Z,1.43
2023-02-25T05:05:31.925Z,1.43
2023-02-25T05:06:03.676Z,1.43
2023-02-25T05:06:37.287Z,1.43
2023-02-25T05:07:09.194Z,1.43
2023-02-25T05:07:35.251Z,1.43
2023-02-25T05:07:56.425Z,1.43
2023-02-25T05:08:29.069Z,1.43
2023-02-25T05:09:17.996Z,1.43
2023-02-25T05:09:37.718Z,1.43
2023-02-25T05:10:04.460Z,1.27
2023-02-25T05:10:36.134Z,1.27
2023-02-25T05:11:08.171Z,1.27
2023-02-25T05:11:37.440Z,1.27
2023-02-25T05:11:56.451Z,1.27
2023-02-25T05:12:28.266Z,1.27
2023-02-25T05:13:00.188Z,1.27
2023-02-25T05:13:32.173Z,1.27
2023-02-25T05:14:04.214Z,1.27
2023-02-25T05:14:36.168Z,1.27
2023-02-25T05:15:08.762Z,1.27
2023-02-25T05:15:35.300Z,1.27
2023-02-25T05:15:56.767Z,1.27
2023-02-25T05:16:28.354Z,1.27
2023-02-25T05:17:00.194Z,1.27
2023-02-25T05:17:32.160Z,1.27
2023-02-25T05:18:05.058Z,1.27
2023-02-25T05:18:36.154Z,1.27
2023-02-25T05:19:08.166Z,1.27
2023-02-25T05:19:35.523Z,1.27
2023-02-25T05:19:56.572Z,1.27
2023-02-25T05:20:28.599Z,1.27
2023-02-25T05:21:00.204Z,1.27
2023-02-25T05:21:32.283Z,1.27
2023-02-25T05:22:04.209Z,1.27
2023-02-25T05:22:36.213Z,1.27
2023-02-25T05:23:08.148Z,1.27
2023-02-25T05:23:35.288Z,1.27
2023-02-25T05:23:56.544Z,1.27
2023-02-25T05:24:29.847Z,1.27
2023-02-25T05:25:00.197Z,1.27
2023-02-25T05:25:32.432Z,1.27
2023-02-25T05:26:04.191Z,1.27
2023-02-25T05:26:36.143Z,1.27
2023-02-25T05:27:08.179Z,1.27
2023-02-25T05:27:36.755Z,1.17
2023-02-25T05:27:56.527Z,1.17
2023-02-25T05:28:28.282Z,1.27
2023-02-25T05:29:00.241Z,1.27
2023-02-25T05:29:32.164Z,1.27
2023-02-25T05:30:04.977Z,1.27
2023-02-25T05:30:36.238Z,1.27
2023-02-25T05:31:08.411Z,1.27
2023-02-25T05:31:35.544Z,1.27
2023-02-25T05:31:56.693Z,1.27
2023-02-25T05:32:28.408Z,1.27
2023-02-25T05:33:00.290Z,1.27
2023-02-25T05:33:32.298Z,1.27
2023-02-25T05:34:05.969Z,1.27
2023-02-25T05:34:36.170Z,1.27
2023-02-25T05:35:08.430Z,1.27
2023-02-25T05:35:35.258Z,1.27
2023-02-25T05:35:56.774Z,1.17
2023-02-25T05:36:28.837Z,1.17
2023-02-25T05:37:00.201Z,1.17
2023-02-25T05:37:32.182Z,1.17
2023-02-25T05:38:04.337Z,1.17
2023-02-25T05:38:36.198Z,1.17
2023-02-25T05:39:08.212Z,1.17
2023-02-25T05:39:35.615Z,1.17
2023-02-25T05:39:56.525Z,1.17
2023-02-25T05:40:29.414Z,1.17
2023-02-25T05:41:00.190Z,1.17
2023-02-25T05:41:32.148Z,1.17
2023-02-25T05:42:04.195Z,1.17
2023-02-25T05:42:36.171Z,1.01
2023-02-25T05:43:08.173Z,1.01
2023-02-25T05:43:37.045Z,1.01
2023-02-25T05:43:56.534Z,1.01
2023-02-25T05:44:28.249Z,1.01
2023-02-25T05:45:00.950Z,1.01
2023-02-25T05:45:32.223Z,1.01
2023-02-25T05:46:04.477Z,1.01
2023-02-25T05:46:36.501Z,1.01
2023-02-25T05:47:08.280Z,1.01
2023-02-25T05:47:35.634Z,1.01
2023-02-25T05:47:56.542Z,1.01
2023-02-25T05:48:28.274Z,1.01
2023-02-25T05:49:00.177Z,1.01
2023-02-25T05:49:32.158Z,1.17
2023-02-25T05:50:05.298Z,1.01
2023-02-25T05:50:36.547Z,1.01
2023-02-25T05:51:08.225Z,1.01
2023-02-25T05:51:35.262Z,1.01
2023-02-25T05:51:56.572Z,1.01
2023-02-25T05:52:28.333Z,1.01
2023-02-25T05:53:00.177Z,1.01
2023-02-25T05:53:32.200Z,1.01
2023-02-25T05:54:04.326Z,1.01
2023-02-25T05:54:36.191Z,1.01
2023-02-25T05:55:08.479Z,1.01
2023-02-25T05:55:35.719Z,1.01
2023-02-25T05:55:56.811Z,1.01
2023-02-25T05:56:30.963Z,1.01
2023-02-25T05:57:00.219Z,1.01
2023-02-25T05:57:33.062Z,1.01
2023-02-25T05:58:04.224Z,1.01
2023-02-25T05:58:36.197Z,1.01
2023-02-25T05:59:08.189Z,1.01
2023-02-25T05:59:35.244Z,1.01
2023-02-25T05:59:56.638Z,1.01
2023-02-25T06:00:28.832Z,1.01
2023-02-25T06:01:00.570Z,1.01
2023-02-25T06:01:32.138Z,1.01
2023-02-25T06:02:04.360Z,1.01
2023-02-25T06:02:36.199Z,1.17
2023-02-25T06:03:08.318Z,1.17
2023-02-25T06:03:35.387Z,1.17
2023-02-25T06:03:57.056Z,1.17
2023-02-25T06:04:28.242Z,1.17
2023-02-25T06:05:00.558Z,1.17
2023-02-25T06:05:32.482Z,1.27
2023-02-25T06:06:04.238Z,1.12
2023-02-25T06:06:36.147Z,1.17
2023-02-25T06:07:09.053Z,1.17
2023-02-25T06:07:35.258Z,1.17
2023-02-25T06:07:56.617Z,1.17
2023-02-25T06:08:28.302Z,1.17
2023-02-25T06:09:00.201Z,1.01
2023-02-25T06:09:32.227Z,1.01
2023-02-25T06:10:04.529Z,1.01
2023-02-25T06:10:36.200Z,1.01
2023-02-25T06:11:08.204Z,1.01
2023-02-25T06:11:35.264Z,1.01
2023-02-25T06:11:56.606Z,1.27
2023-02-25T06:12:28.289Z,1.27
2023-02-25T06:13:00.230Z,1.12
2023-02-25T06:13:33.080Z,1.12
2023-02-25T06:14:04.245Z,1.12
2023-02-25T06:14:36.190Z,1.12
2023-02-25T06:15:08.757Z,1.12
2023-02-25T06:15:35.493Z,1.12
2023-02-25T06:15:56.898Z,1.27
2023-02-25T06:16:28.297Z,1.27
2023-02-25T06:17:00.233Z,1.12
2023-02-25T06:17:32.213Z,1.01
2023-02-25T06:18:04.268Z,1.01
2023-02-25T06:18:36.162Z,1.01
2023-02-25T06:19:08.206Z,1.12
2023-02-25T06:19:35.249Z,1.12
2023-02-25T06:19:56.998Z,1.01
2023-02-25T06:20:28.556Z,1.01
2023-02-25T06:21:00.200Z,1.01
2023-02-25T06:21:32.164Z,1.01
2023-02-25T06:22:04.234Z,1.01
2023-02-25T06:22:36.154Z,1.01
2023-02-25T06:23:09.995Z,1.01
2023-02-25T06:23:35.330Z,1.01
2023-02-25T06:23:56.603Z,1.01
2023-02-25T06:24:28.293Z,1.01
2023-02-25T06:25:00.599Z,1.01
2023-02-25T06:25:32.212Z,1.01
2023-02-25T06:26:04.266Z,1.01
2023-02-25T06:26:36.197Z,1.01
2023-02-25T06:27:08.239Z,1.01
2023-02-25T06:27:35.259Z,1.01
2023-02-25T06:27:56.644Z,1.01
2023-02-25T06:28:28.373Z,1.01
2023-02-25T06:29:00.339Z,1.01
2023-02-25T06:29:32.993Z,1.01
2023-02-25T06:30:04.885Z,1.01
2023-02-25T06:30:36.395Z,1.01
2023-02-25T06:31:08.403Z,1.01
2023-02-25T06:31:35.370Z,1.01
2023-02-25T06:31:56.944Z,1.01
2023-02-25T06:32:28.510Z,1.01
2023-02-25T06:33:00.246Z,1.01
2023-02-25T06:33:32.318Z,1.01
2023-02-25T06:34:04.361Z,1.01
2023-02-25T06:34:36.340Z,1.01
2023-02-25T06:35:08.634Z,1.01
2023-02-25T06:35:35.396Z,1.01
2023-02-25T06:35:57.304Z,1.01
2023-02-25T06:36:28.430Z,1.01
2023-02-25T06:37:00.279Z,1.01
2023-02-25T06:37:32.286Z,1.01
2023-02-25T06:38:04.359Z,1.01
2023-02-25T06:38:36.260Z,1.01
2023-02-25T06:39:09.144Z,1.01
2023-02-25T06:39:35.426Z,1.01